Nageezi, New Mexico
Current Conditions -  °F | °C
As of 8:53 PM on Thursday 27 Nov 2014 (Local Time) from KFMN Reporting Station
Clear Clear  
Wind Chill: 25°   Ceiling: Unl
Heat Index: 32°   Visibility: 10mi
Dew Point: 19°   Wind: 8mph
Humidity: 59%   Direction: 30°NNE
Pressure: 30.33"   Gusts: NA
Location:  36.27°N, 107.74°W
Report Text: KFMN 280353Z 03007KT 10SM CLR 00/M07 A3033 RMK AO2 SLP294 T00001072
Loading
Personal Weather Stations






























Interactive Weather Map New forecast layout! Learn more

10-Day Weather Forecast

Advertisements
Track Severe Weather on mobile